Latest Weather Observations for Coonawarra

IDS60801

Issued at 5:31 pm CST Monday 25 September 2017 (issued every 30 minutes, with the page automatically refreshed every 10 minutes)

About weather observations | Map of weather stations | Latest weather observations for SA | Other Formats
Station Details ID: 026091 Name: COONAWARRA Lat: -37.29 Lon: 140.83 Height: 57.0 m
Data from the previous 72 hours. | See also: Recent months at Coonawarra
Date/Time
CST
Temp
°C
App
Temp
°C
Dew
Point
°C
Rel
Hum
%
Delta-T
°C
Wind Press
QNH
hPa
Press
MSL
hPa
Rain since
9am
mm
Dir  Spd
km/h
Gust
km/h
Spd
kts
Gust
kts
25/05:30pm 12.2 7.6 3.7 56 3.8 WSW 17 24 9 13 1014.6 1014.6 0.0
25/05:00pm 12.8 7.8 3.7 54 4.1 WSW 19 26 10 14 1014.2 1014.2 0.0
25/04:30pm 13.8 7.8 3.4 49 4.7 SW 24 33 13 18 1013.9 1013.9 0.0
25/04:00pm 14.0 8.5 3.9 50 4.6 WSW 22 32 12 17 1013.6 1013.6 0.0
25/03:30pm 13.9 9.0 4.9 54 4.2 WSW 20 30 11 16 1013.4 1013.4 0.0
25/03:00pm 14.6 8.8 4.5 50 4.7 WSW 24 35 13 19 1013.2 1013.2 0.0
25/02:30pm 14.0 9.2 5.5 56 4.0 SW 20 30 11 16 1013.1 1013.1 0.0
25/02:00pm 13.9 8.5 4.4 52 4.4 WSW 22 32 12 17 1013.0 1013.0 0.0
25/01:30pm 14.5 8.3 4.4 50 4.7 WSW 26 37 14 20 1012.8 1012.8 0.0
25/01:00pm 14.5 9.4 5.9 56 4.1 SW 22 37 12 20 1012.8 1012.8 0.0
25/12:30pm 14.3 8.1 4.1 50 4.7 W 26 37 14 20 1012.8 1012.8 0.0
25/12:00pm 14.8 8.8 5.3 53 4.5 WSW 26 37 14 20 1012.5 1012.5 0.0
25/11:30am 14.1 8.5 5.4 56 4.1 WSW 24 33 13 18 1012.3 1012.3 0.0
25/11:00am 13.5 7.4 4.9 56 4.0 WSW 26 37 14 20 1012.3 1012.3 0.0
25/10:30am 13.2 7.6 5.5 59 3.6 SW 24 37 13 20 1012.3 1012.3 0.0
25/10:00am 13.3 7.3 5.2 58 3.8 WSW 26 33 14 18 1012.2 1012.2 0.0
25/09:30am 12.8 7.3 6.1 64 3.2 SW 24 32 13 17 1011.9 1011.9 0.0
25/09:00am 12.4 8.2 7.5 72 2.4 WSW 19 24 10 13 1011.5 1011.5 3.2
25/08:30am 12.0 8.3 7.9 76 2.0 WSW 17 22 9 12 1011.2 1011.2 3.2
25/08:00am 10.6 7.8 8.4 86 1.1 W 13 20 7 11 1010.9 1010.9 3.0
25/07:30am 10.0 7.3 9.0 93 0.5 W 13 17 7 9 1010.4 1010.4 3.0
25/07:00am 8.7 5.8 8.3 97 0.2 NW 13 15 7 8 1009.9 1009.9 3.0
25/06:30am 7.7 5.0 7.5 99 0.1 NW 11 13 6 7 1009.5 1009.5 3.0
25/06:00am 6.9 4.4 6.5 97 0.2 NW 9 11 5 6 1009.1 1009.1 3.0
25/05:30am 7.3 4.5 7.1 99 0.1 WNW 11 13 6 7 1008.4 1008.4 3.0
25/05:00am 7.4 4.6 7.0 97 0.2 NW 11 13 6 7 1007.9 1007.9 3.0
25/04:30am 8.2 5.6 7.8 97 0.2 WNW 11 13 6 7 1007.5 1007.5 3.0
25/04:00am 8.7 6.2 8.3 97 0.2 WNW 11 13 6 7 1007.3 1007.3 3.0
25/03:30am 7.8 5.9 7.4 97 0.2 NW 7 9 4 5 1007.0 1007.0 3.0
25/03:00am 8.4 5.9 8.0 97 0.2 NW 11 13 6 7 1006.8 1006.8 3.0
25/02:30am 9.2 6.8 8.6 96 0.3 WNW 11 13 6 7 1006.6 1006.6 3.0
25/02:00am 8.9 6.8 8.3 96 0.3 WNW 9 11 5 6 1006.6 1006.6 3.0
25/01:30am 9.2 6.7 8.4 95 0.4 WNW 11 13 6 7 1006.7 1006.7 3.0
25/01:00am 9.8 7.2 9.2 96 0.3 WNW 13 15 7 8 1006.7 1006.7 3.0
25/12:30am 10.0 7.3 9.0 93 0.5 WNW 13 17 7 9 1006.6 1006.6 3.0
25/12:00am 10.3 7.0 9.5 95 0.4 WNW 17 24 9 13 1006.4 1006.4 3.0
 
Date/Time
CST
Temp
°C
App
Temp
°C
Dew
Point
°C
Rel
Hum
%
Delta-T
°C
Wind Press
QNH
hPa
Press
MSL
hPa
Rain since
9am
mm
Dir  Spd
km/h
Gust
km/h
Spd
kts
Gust
kts
24/11:30pm 9.8 6.7 8.8 93 0.5 NW 15 19 8 10 1006.2 1006.2 2.8
24/11:00pm 9.9 6.4 8.9 93 0.5 WNW 17 22 9 12 1006.1 1006.1 2.8
24/10:30pm 10.2 7.1 9.0 92 0.6 WNW 15 26 8 14 1006.0 1006.0 2.8
24/10:00pm 10.3 7.2 8.9 91 0.7 NW 15 20 8 11 1005.8 1005.8 2.8
24/09:30pm 10.9 7.6 9.5 91 0.7 NW 17 20 9 11 1005.6 1005.6 2.8
24/09:00pm 11.4 8.1 9.4 87 1.0 WNW 17 24 9 13 1005.2 1005.3 2.6
24/08:30pm 11.3 7.4 9.3 87 1.0 NW 20 28 11 15 1004.7 1004.8 2.6
24/08:00pm 11.4 6.7 9.2 86 1.1 WNW 24 37 13 20 1004.3 1004.4 2.6
24/07:30pm 11.5 7.2 9.3 86 1.1 WNW 22 32 12 17 1003.8 1003.9 2.6
24/07:00pm 12.1 7.1 9.6 85 1.3 WNW 26 35 14 19 1003.2 1003.3 2.4
24/06:30pm 12.2 7.9 9.2 82 1.5 WNW 22 35 12 19 1002.5 1002.6 2.2
24/06:00pm 13.1 6.7 8.5 73 2.3 WNW 32 50 17 27 1002.0 1002.0 2.0
24/05:30pm 13.4 7.3 8.4 72 2.5 WNW 30 46 16 25 1001.3 1001.3 2.0
24/05:05pm 14.0 7.3 8.0 67 3.0 WNW 33 54 18 29 1000.9 1000.9 2.0
24/05:00pm 14.2 7.6 8.7 69 2.8 WNW 33 48 18 26 1000.9 1000.9 2.0
24/04:30pm 14.1 6.3 8.4 68 2.9 WNW 39 59 21 32 1000.2 1000.2 2.0
24/04:16pm 15.0 7.1 7.8 62 3.6 WNW 39 65 21 35 999.8 999.8 2.0
24/04:00pm 14.3 7.1 9.3 72 2.6 WNW 37 52 20 28 999.7 999.7 2.0
24/03:30pm 14.5 6.6 9.5 72 2.6 NW 41 70 22 38 999.2 999.2 2.0
24/03:00pm 14.3 6.6 10.3 77 2.1 WNW 41 61 22 33 998.9 998.9 2.0
24/02:30pm 13.7 6.6 10.9 83 1.5 NW 39 57 21 31 998.9 998.9 2.0
24/02:00pm 14.2 6.0 10.4 78 2.0 WNW 44 65 24 35 998.5 998.5 1.4
24/01:38pm 14.2 7.9 9.6 74 2.4 WNW 33 54 18 29 998.6 998.6 1.2
24/01:30pm 13.4 6.5 10.3 81 1.6 WNW 37 65 20 35 998.7 998.7 1.2
24/01:29pm 13.5 6.7 10.5 82 1.6 WNW 37 65 20 35 998.7 998.7 1.2
24/01:00pm 14.4 5.8 8.7 68 2.9 NW 44 70 24 38 998.7 998.7 0.6
24/12:30pm 14.3 5.8 8.6 68 2.9 NW 43 67 23 36 998.7 998.7 0.6
24/12:00pm 14.2 5.8 8.9 70 2.7 NW 43 63 23 34 998.9 998.9 0.6
24/11:30am 13.7 4.7 10.3 80 1.8 NW 48 69 26 37 999.0 999.0 0.6
24/11:03am 15.0 7.3 10.3 73 2.5 NW 41 59 22 32 998.8 998.8 0.2
24/11:00am 14.6 6.9 10.0 74 2.4 NW 41 57 22 31 998.9 998.9 0.2
24/10:53am 14.2 7.3 10.2 77 2.1 NW 37 56 20 30 999.0 999.0 0.2
24/10:30am 13.6 7.4 10.0 79 1.9 NW 33 50 18 27 999.1 999.1 0.2
24/10:00am 12.6 5.1 9.3 80 1.7 NW 39 59 21 32 999.3 999.3 0.2
24/09:58am 13.4 5.7 8.7 73 2.4 NW 39 59 21 32 999.2 999.2 0.0
24/09:30am 14.2 7.4 9.1 71 2.6 NW 35 50 19 27 999.1 999.1 0.0
24/09:04am 13.8 7.5 9.8 77 2.1 NW 33 52 18 28 999.1 999.1 0.0
24/09:00am 13.8 7.6 10.0 78 2.0 NW 33 48 18 26 999.0 999.0 10.2
24/08:40am 13.1 7.3 9.6 79 1.8 NNW 30 48 16 26 999.1 999.1 10.2
24/08:30am 13.5 7.6 9.0 74 2.3 NW 30 44 16 24 999.1 999.1 10.2
24/08:00am 12.6 7.6 9.7 82 1.5 NNW 26 39 14 21 999.1 999.1 10.2
24/07:30am 11.8 7.0 8.8 82 1.5 NW 24 35 13 19 998.9 998.9 10.2
24/07:00am 10.8 6.8 9.0 89 0.9 NNW 20 26 11 14 998.8 998.8 10.2
24/06:30am 10.7 6.5 8.3 85 1.2 NW 20 32 11 17 998.7 998.7 10.2
24/06:00am 10.4 5.8 8.2 86 1.1 NNW 22 30 12 16 998.5 998.5 10.2
24/05:30am 10.2 6.7 8.8 91 0.7 NW 17 22 9 12 998.4 998.4 10.2
24/05:00am 9.6 6.4 8.4 92 0.6 NNW 15 20 8 11 998.0 998.0 10.2
24/04:30am 9.2 4.8 7.5 89 0.8 NNW 20 28 11 15 998.1 998.1 10.0
24/04:00am 9.5 5.6 7.2 85 1.1 NW 17 20 9 11 997.9 997.9 10.0
24/03:30am 10.0 3.2 6.8 80 1.5 WNW 32 50 17 27 998.2 998.2 9.8
24/03:04am 10.2 4.0 7.9 86 1.1 WNW 30 48 16 26 998.2 998.2 9.4
24/03:00am 10.3 3.2 8.1 86 1.1 W 35 48 19 26 998.3 998.3 9.4
24/02:43am 11.3 5.6 8.5 83 1.4 NW 28 50 15 27 998.2 998.2 9.0
24/02:30am 11.6 7.3 9.2 85 1.2 NNW 22 30 12 16 997.8 997.8 9.0
24/02:00am 12.0 7.4 9.7 86 1.2 NNW 24 33 13 18 998.2 998.2 9.0
24/01:30am 12.4 7.5 10.1 86 1.2 NNW 26 39 14 21 998.4 998.4 9.0
24/01:00am 12.0 9.0 10.7 92 0.7 N 17 24 9 13 998.8 998.8 9.0
24/12:30am 11.7 8.6 10.2 90 0.8 NNW 17 24 9 13 999.5 999.5 9.0
24/12:00am 11.5 8.2 9.5 87 1.0 NNW 17 24 9 13 1000.0 1000.0 9.0
 
Date/Time
CST
Temp
°C
App
Temp
°C
Dew
Point
°C
Rel
Hum
%
Delta-T
°C
Wind Press
QNH
hPa
Press
MSL
hPa
Rain since
9am
mm
Dir  Spd
km/h
Gust
km/h
Spd
kts
Gust
kts
23/11:30pm 11.7 8.3 9.1 84 1.3 NW 17 22 9 12 1000.1 1000.1 9.0
23/11:00pm 12.1 7.7 9.1 82 1.5 NW 22 32 12 17 1000.3 1000.3 9.0
23/10:30pm 12.7 9.3 9.0 78 1.9 WNW 17 24 9 13 1000.2 1000.2 9.0
23/10:00pm 12.5 8.5 8.9 79 1.8 NW 20 28 11 15 1000.4 1000.4 9.0
23/09:30pm 12.7 8.5 9.6 81 1.6 WNW 22 32 12 17 1000.4 1000.4 9.0
23/09:00pm 13.3 8.4 9.8 79 1.8 NW 26 39 14 21 1000.2 1000.2 9.0
23/08:30pm 13.2 8.6 9.7 79 1.8 NW 24 32 13 17 1000.4 1000.4 9.0
23/08:00pm 13.1 9.0 10.0 81 1.6 NW 22 32 12 17 1000.0 1000.0 9.0
23/07:30pm 13.6 8.8 10.2 80 1.8 WNW 26 41 14 22 999.8 999.8 9.0
23/07:00pm 13.7 9.2 10.1 79 1.9 NW 24 39 13 21 999.5 999.5 8.8
23/06:30pm 14.0 8.1 9.1 72 2.5 WNW 30 43 16 23 999.1 999.1 8.8
23/06:00pm 14.2 8.8 9.6 74 2.4 WNW 28 43 15 23 998.7 998.7 8.8
23/05:33pm 15.1 9.3 9.5 69 2.9 WNW 30 48 16 26 998.1 998.1 8.8
23/05:30pm 15.2 9.0 9.4 68 3.0 WNW 32 48 17 26 998.1 998.1 8.8
23/05:00pm 16.0 9.9 9.9 67 3.2 WNW 32 43 17 23 997.6 997.6 8.8
23/04:36pm 16.2 10.3 10.4 68 3.1 WNW 32 50 17 27 997.3 997.3 8.8
23/04:30pm 16.2 9.5 9.8 66 3.4 WNW 35 50 19 27 997.2 997.2 8.8
23/04:00pm 17.0 9.2 9.8 62 3.8 WNW 41 56 22 30 996.7 996.7 8.8
23/03:30pm 16.9 9.7 10.4 65 3.5 WNW 39 63 21 34 996.1 996.1 8.8
23/03:10pm 16.0 11.3 14.4 90 0.9 W 32 50 17 27 995.8 995.8 8.8
23/03:00pm 15.0 11.5 13.4 90 0.9 W 24 33 13 18 995.5 995.5 8.8
23/02:54pm 13.6 8.9 11.9 89 0.9 W 28 48 15 26 995.6 995.6 8.8
23/02:47pm 16.0 13.0 13.7 86 1.3 NW 22 48 12 26 995.6 995.6 3.2
23/02:30pm 18.0 15.9 13.5 75 2.6 WNW 17 24 9 13 995.0 995.0 1.6
23/02:00pm 16.6 14.7 13.1 80 2.0 WSW 15 22 8 12 994.6 994.6 1.6
23/01:30pm 15.3 11.9 12.6 84 1.5 SW 22 41 12 22 994.2 994.2 1.0
23/01:14pm 16.9 11.6 11.2 69 3.1 SW 30 48 16 26 994.4 994.4 0.0
23/01:00pm 17.8 12.4 12.3 70 3.1 SW 32 41 17 22 994.1 994.1 0.0
23/12:30pm 19.5 15.1 11.6 60 4.4 SW 26 32 14 17 993.8 993.8 0.0
23/12:00pm 19.9 17.1 12.5 62 4.2 SW 19 26 10 14 993.5 993.5 0.0
23/11:30am 20.0 18.4 11.4 57 4.8 SSE 11 15 6 8 992.9 992.9 0.0
23/11:00am 19.5 17.1 11.4 59 4.5 SSW 15 22 8 12 992.9 992.9 0.0
23/10:30am 19.1 16.1 10.7 58 4.6 SW 17 22 9 12 993.9 993.9 0.0
23/10:00am 19.4 16.2 11.1 58 4.5 SW 19 26 10 14 994.8 994.8 0.0
23/09:30am 19.0 17.2 10.8 59 4.5 ESE 11 17 6 9 993.4 993.4 0.0
23/09:00am 17.6 14.6 10.6 63 3.8 E 17 24 9 13 993.2 993.2 0.0
23/08:30am 15.3 12.2 10.4 72 2.6 E 17 28 9 15 994.4 994.4 0.0
23/08:00am 14.1 12.8 11.3 83 1.5 E 9 13 5 7 996.4 996.4 0.0
23/07:30am 13.6 11.6 11.6 88 1.1 SE 13 20 7 11 997.1 997.1 0.0
23/07:00am 13.6 11.7 11.7 88 1.0 SSW 13 17 7 9 997.5 997.5 0.0
23/06:30am 12.5 9.8 11.6 94 0.5 ESE 17 20 9 11 995.7 995.7 0.0
23/06:00am 11.8 10.0 10.8 94 0.5 SE 11 15 6 8 997.5 997.5 0.0
23/05:30am 11.3 9.4 10.5 95 0.4 SE 11 15 6 8 998.1 998.1 0.0
23/05:00am 11.9 10.6 11.1 95 0.4 S 9 9 5 5 999.1 999.1 0.0
23/04:30am 12.1 10.7 10.8 92 0.7 SSW 9 11 5 6 999.2 999.2 0.0
23/04:00am 12.4 10.7 11.1 92 0.7 WSW 11 13 6 7 1000.3 1000.3 0.0
23/03:30am 12.6 11.3 11.1 91 0.8 W 9 15 5 8 999.6 999.6 0.0
23/03:00am 11.9 10.4 10.6 92 0.7 NNE 9 13 5 7 998.9 998.9 0.0
23/02:30am 12.3 10.5 10.8 90 0.8 ENE 11 13 6 7 998.5 998.5 0.0
23/02:00am 11.7 9.8 10.4 92 0.7 ENE 11 13 6 7 998.8 998.8 0.0
23/01:30am 11.4 11.0 9.6 89 0.9 NNE 2 7 1 4 1000.0 1000.0 0.0
23/01:00am 12.0 11.1 10.5 90 0.8 NNE 6 6 3 3 1000.7 1000.7 0.0
23/12:30am 13.0 11.6 10.9 87 1.1 NE 9 13 5 7 1000.8 1000.8 0.0
23/12:00am 14.1 14.2 11.5 84 1.4 WSW 2 6 1 3 1001.7 1001.7 0.0
 
Date/Time
CST
Temp
°C
App
Temp
°C
Dew
Point
°C
Rel
Hum
%
Delta-T
°C
Wind Press
QNH
hPa
Press
MSL
hPa
Rain since
9am
mm
Dir  Spd
km/h
Gust
km/h
Spd
kts
Gust
kts
22/11:30pm 14.7 13.1 11.4 80 1.8 WSW 11 24 6 13 1002.0 1002.0 0.0
22/11:00pm 16.8 15.2 11.5 71 2.9 S 11 24 6 13 1001.5 1001.5 0.0
22/10:30pm 18.4 17.0 10.9 61 4.1 W 9 24 5 13 1001.7 1001.7 0.0
22/10:15pm 19.1 14.4 9.3 53 5.2 W 24 39 13 21 1003.1 1003.2 0.0
22/10:00pm 19.3 16.1 8.4 49 5.7 NNE 15 20 8 11 1001.1 1001.1 0.0
22/09:30pm 19.4 16.0 9.0 51 5.5 NNE 17 24 9 13 1001.5 1001.5 0.0
22/09:00pm 19.6 16.3 9.5 52 5.4 NNE 17 19 9 10 1001.7 1001.7 0.0
22/08:30pm 20.4 17.2 10.1 51 5.6 NNE 17 22 9 12 1001.8 1001.8 0.0
22/08:00pm 21.0 17.5 10.2 50 5.9 NNE 19 24 10 13 1002.1 1002.2 0.0
22/07:30pm 20.5 17.3 11.3 55 5.1 NNE 19 22 10 12 1002.5 1002.6 0.0
22/07:00pm 20.1 18.4 12.3 61 4.4 N 13 15 7 8 1002.7 1002.8 0.0
22/06:30pm 21.1 18.8 11.9 55 5.2 NNE 15 19 8 10 1002.2 1002.3 0.0
22/06:00pm 21.2 19.1 12.4 57 5.0 N 15 19 8 10 1002.4 1002.5 0.0

Other Formats:

Comma delimited format used in spreadsheet applications
http://www.bom.gov.au/fwo/IDS60801/IDS60801.94817.axf

JavaScript Object Notation format (JSON) in row-major order
http://www.bom.gov.au/fwo/IDS60801/IDS60801.94817.json